createdAt,value
2017-12-26T00:00:23.589Z,-4.50
2017-12-26T00:02:51.068Z,-4.42
2017-12-26T00:05:18.536Z,-4.23
2017-12-26T00:07:46.034Z,-4.04
2017-12-26T00:10:13.509Z,-3.99
2017-12-26T00:12:40.977Z,-4.03
2017-12-26T00:15:08.469Z,-4.08
2017-12-26T00:17:35.940Z,-4.16
2017-12-26T00:20:03.404Z,-4.22
2017-12-26T00:22:30.888Z,-4.19
2017-12-26T00:24:58.378Z,-4.21
2017-12-26T00:27:25.897Z,-4.31
2017-12-26T00:29:53.391Z,-4.44
2017-12-26T00:32:20.912Z,-4.41
2017-12-26T00:34:48.406Z,-4.50
2017-12-26T00:37:15.893Z,-4.49
2017-12-26T00:39:43.364Z,-4.55
2017-12-26T00:42:10.832Z,-4.59
2017-12-26T00:44:38.349Z,-4.55
2017-12-26T00:47:05.816Z,-4.57
2017-12-26T00:49:33.292Z,-4.59
2017-12-26T00:52:00.781Z,-4.48
2017-12-26T00:54:28.248Z,-4.33
2017-12-26T00:56:55.733Z,-4.47
2017-12-26T00:59:23.204Z,-4.32
2017-12-26T01:01:50.692Z,-4.35
2017-12-26T01:04:18.165Z,-4.27
2017-12-26T01:06:45.629Z,-4.34
2017-12-26T01:09:13.113Z,-4.23
2017-12-26T01:11:40.585Z,-4.10
2017-12-26T01:14:08.071Z,-4.12
2017-12-26T01:16:35.553Z,-4.27
2017-12-26T01:19:03.045Z,-4.13
2017-12-26T01:21:30.516Z,-4.13
2017-12-26T01:23:57.998Z,-4.02
2017-12-26T01:26:25.480Z,-4.02
2017-12-26T01:28:52.960Z,-4.09
2017-12-26T01:31:20.465Z,-4.23
2017-12-26T01:33:48.006Z,-4.48
2017-12-26T01:36:15.537Z,-4.60
2017-12-26T01:38:43.004Z,-4.71
2017-12-26T01:41:10.481Z,-4.72
2017-12-26T01:43:37.969Z,-4.67
2017-12-26T01:46:17.329Z,-4.74
2017-12-26T01:48:44.817Z,-4.69
2017-12-26T01:51:12.289Z,-4.64
2017-12-26T01:53:39.757Z,-4.51
2017-12-26T01:56:07.242Z,-4.40
2017-12-26T01:58:34.708Z,-4.26
2017-12-26T02:01:02.316Z,-4.15
2017-12-26T02:03:29.812Z,-4.03
2017-12-26T02:05:57.281Z,-3.96
2017-12-26T02:08:24.748Z,-3.84
2017-12-26T02:10:53.155Z,-3.71
2017-12-26T02:13:20.624Z,-3.66
2017-12-26T02:15:48.093Z,-3.64
2017-12-26T02:18:15.603Z,-3.79
2017-12-26T02:20:43.106Z,-3.78
2017-12-26T02:23:10.596Z,-3.65
2017-12-26T02:25:38.100Z,-3.59
2017-12-26T02:28:05.569Z,-3.59
2017-12-26T02:30:33.034Z,-3.66
2017-12-26T02:33:00.521Z,-3.67
2017-12-26T02:35:27.988Z,-3.65
2017-12-26T02:37:55.454Z,-3.71
2017-12-26T02:40:22.957Z,-3.85
2017-12-26T02:42:50.529Z,-4.03
2017-12-26T02:45:18.089Z,-4.24
2017-12-26T02:47:45.648Z,-4.30
2017-12-26T02:50:13.125Z,-4.22
2017-12-26T02:52:40.592Z,-4.25
2017-12-26T02:55:08.125Z,-4.20
2017-12-26T02:57:35.598Z,-4.21
2017-12-26T03:00:03.077Z,-4.28
2017-12-26T03:02:30.565Z,-4.28
2017-12-26T03:04:58.037Z,-4.29
2017-12-26T03:07:25.613Z,-4.08
2017-12-26T03:09:53.113Z,-4.03
2017-12-26T03:12:20.640Z,-4.04
2017-12-26T03:14:48.109Z,-4.05
2017-12-26T03:17:15.592Z,-4.13
2017-12-26T03:19:43.065Z,-4.06
2017-12-26T03:22:10.568Z,-4.05
2017-12-26T03:24:38.041Z,-4.09
2017-12-26T03:27:05.510Z,-4.10
2017-12-26T03:29:32.997Z,-3.95
2017-12-26T03:32:00.471Z,-4.10
2017-12-26T03:34:27.993Z,-4.01
2017-12-26T03:36:55.456Z,-4.02
2017-12-26T03:39:22.916Z,-3.91
2017-12-26T03:41:50.397Z,-3.74
2017-12-26T03:44:17.857Z,-3.86
2017-12-26T03:46:45.396Z,-3.81
2017-12-26T03:49:12.869Z,-3.79
2017-12-26T03:51:40.349Z,-3.82
2017-12-26T03:54:07.816Z,-3.81
2017-12-26T03:56:35.277Z,-3.94
2017-12-26T03:59:02.757Z,-3.93
2017-12-26T04:01:30.243Z,-3.98
2017-12-26T04:03:57.726Z,-3.95
2017-12-26T04:06:25.244Z,-4.02
2017-12-26T04:08:52.704Z,-4.02
2017-12-26T04:11:20.156Z,-3.90
2017-12-26T04:13:47.677Z,-3.63
2017-12-26T04:16:15.146Z,-3.59
2017-12-26T04:18:42.608Z,-3.63
2017-12-26T04:21:10.195Z,-3.63
2017-12-26T04:23:37.667Z,-3.44
2017-12-26T04:26:05.130Z,-3.24
2017-12-26T04:28:32.609Z,-2.97
2017-12-26T04:31:00.069Z,-2.80
2017-12-26T04:33:27.531Z,-2.64
2017-12-26T04:35:55.012Z,-2.50
2017-12-26T04:38:22.481Z,-2.38
2017-12-26T04:40:49.992Z,-2.26
2017-12-26T04:43:17.453Z,-2.28
2017-12-26T04:45:44.935Z,-2.26
2017-12-26T04:48:12.492Z,-2.16
2017-12-26T04:50:39.953Z,-2.34
2017-12-26T04:53:07.413Z,-2.39
2017-12-26T04:55:34.884Z,-2.50
2017-12-26T04:58:02.345Z,-2.53
2017-12-26T05:00:29.805Z,-2.48
2017-12-26T05:02:57.281Z,-2.46
2017-12-26T05:05:24.749Z,-2.43
2017-12-26T05:07:52.224Z,-2.47
2017-12-26T05:10:19.685Z,-2.40
2017-12-26T05:12:47.168Z,-2.30
2017-12-26T05:15:14.636Z,-2.33
2017-12-26T05:17:42.100Z,-2.39
2017-12-26T05:20:09.740Z,-2.40
2017-12-26T05:22:37.201Z,-2.36
2017-12-26T05:25:04.665Z,-2.39
2017-12-26T05:27:32.140Z,-2.34
2017-12-26T05:29:59.606Z,-2.08
2017-12-26T05:32:27.127Z,-2.07
2017-12-26T05:34:54.604Z,-2.04
2017-12-26T05:37:22.072Z,-2.04
2017-12-26T05:39:49.529Z,-1.91
2017-12-26T05:42:17.005Z,-1.86
2017-12-26T05:44:44.469Z,-1.75
2017-12-26T05:47:11.953Z,-1.86
2017-12-26T05:49:39.413Z,-1.93
2017-12-26T05:52:06.890Z,-1.95
2017-12-26T05:54:34.352Z,-1.90
2017-12-26T05:57:01.817Z,-1.93
2017-12-26T05:59:29.297Z,-1.88
2017-12-26T06:01:56.757Z,-1.73
2017-12-26T06:04:24.232Z,-1.74
2017-12-26T06:06:51.690Z,-1.82
2017-12-26T06:09:19.169Z,-1.81
2017-12-26T06:11:46.632Z,-1.76
2017-12-26T06:14:14.113Z,-1.66
2017-12-26T06:16:41.577Z,-1.66
2017-12-26T06:19:09.064Z,-1.61
2017-12-26T06:21:36.537Z,-1.58
2017-12-26T06:24:03.996Z,-1.62
2017-12-26T06:26:31.473Z,-1.54
2017-12-26T06:28:58.952Z,-1.55
2017-12-26T06:31:26.505Z,-1.51
2017-12-26T06:33:53.992Z,-1.62
2017-12-26T06:36:21.458Z,-1.80
2017-12-26T06:38:48.937Z,-1.88
2017-12-26T06:41:16.398Z,-1.75
2017-12-26T06:43:43.881Z,-1.85
2017-12-26T06:46:11.437Z,-1.92
2017-12-26T06:48:38.914Z,-2.02
2017-12-26T06:51:06.377Z,-2.08
2017-12-26T06:53:33.865Z,-2.12
2017-12-26T06:56:01.329Z,-2.12
2017-12-26T06:58:28.856Z,-2.13
2017-12-26T07:00:56.328Z,-1.94
2017-12-26T07:03:23.812Z,-1.80
2017-12-26T07:05:51.277Z,-1.57
2017-12-26T07:08:18.753Z,-1.95
2017-12-26T07:10:46.214Z,-1.88
2017-12-26T07:13:13.675Z,-1.74
2017-12-26T07:15:41.160Z,-1.56
2017-12-26T07:18:08.648Z,-1.53
2017-12-26T07:20:41.715Z,-1.71
2017-12-26T07:23:09.173Z,-1.37
2017-12-26T07:25:36.640Z,-1.18
2017-12-26T07:28:04.113Z,-1.10
2017-12-26T07:30:31.573Z,-1.08
2017-12-26T07:32:59.053Z,-1.06
2017-12-26T07:35:26.688Z,-0.76
2017-12-26T07:37:54.197Z,-0.66
2017-12-26T07:40:21.681Z,-0.43
2017-12-26T07:42:49.140Z,-0.31
2017-12-26T07:45:16.621Z,-0.18
2017-12-26T07:47:44.088Z,-0.07
2017-12-26T07:50:11.565Z,0.34
2017-12-26T07:52:39.019Z,0.77
2017-12-26T07:55:06.516Z,0.67
2017-12-26T07:57:33.980Z,0.51
2017-12-26T08:00:01.448Z,0.64
2017-12-26T08:02:28.900Z,0.39
2017-12-26T08:04:56.377Z,0.55
2017-12-26T08:07:23.833Z,0.62
2017-12-26T08:09:51.294Z,0.49
2017-12-26T08:12:18.772Z,0.47
2017-12-26T08:14:46.229Z,0.38
2017-12-26T08:17:13.703Z,0.38
2017-12-26T08:19:41.242Z,0.54
2017-12-26T08:22:08.709Z,0.53
2017-12-26T08:24:36.168Z,0.44
2017-12-26T08:27:03.648Z,0.42
2017-12-26T08:29:31.104Z,0.36
2017-12-26T08:31:58.561Z,0.40
2017-12-26T08:34:26.037Z,0.39
2017-12-26T08:36:53.492Z,0.50
2017-12-26T08:39:20.948Z,0.59
2017-12-26T08:41:48.426Z,0.73
2017-12-26T08:44:15.891Z,0.81
2017-12-26T08:46:43.354Z,0.80
2017-12-26T08:49:11.148Z,0.82
2017-12-26T08:51:38.621Z,0.93
2017-12-26T08:54:06.093Z,1.18
2017-12-26T08:56:33.568Z,1.39
2017-12-26T08:59:01.139Z,2.30
2017-12-26T09:01:28.609Z,2.53
2017-12-26T09:03:56.200Z,2.85
2017-12-26T09:06:23.668Z,2.74
2017-12-26T09:08:51.251Z,4.51
2017-12-26T09:11:18.737Z,7.82
2017-12-26T09:13:46.193Z,11.10
2017-12-26T09:16:13.671Z,13.59
2017-12-26T09:18:41.137Z,14.17
2017-12-26T09:21:08.718Z,15.49
2017-12-26T09:23:36.180Z,16.66
2017-12-26T09:26:04.783Z,15.81
2017-12-26T09:28:32.249Z,15.27
2017-12-26T09:30:59.732Z,15.90
2017-12-26T09:33:27.197Z,18.84
2017-12-26T09:35:54.680Z,18.23
2017-12-26T09:38:22.149Z,16.58
2017-12-26T09:40:49.641Z,17.09
2017-12-26T09:43:17.137Z,17.91
2017-12-26T09:45:44.660Z,18.77
2017-12-26T09:48:12.129Z,20.00
2017-12-26T09:50:39.647Z,19.08
2017-12-26T09:53:07.430Z,19.19
2017-12-26T09:55:34.913Z,17.56
2017-12-26T09:58:02.373Z,17.26
2017-12-26T10:00:30.097Z,17.59
2017-12-26T10:02:57.583Z,17.70
2017-12-26T10:05:25.162Z,18.77
2017-12-26T10:07:52.784Z,19.26
2017-12-26T10:10:23.604Z,19.29
2017-12-26T10:12:51.512Z,20.73
2017-12-26T10:15:21.366Z,21.48
2017-12-26T10:17:48.936Z,22.41
2017-12-26T10:20:16.441Z,23.40
2017-12-26T10:22:43.901Z,24.07
2017-12-26T10:25:11.436Z,24.00
2017-12-26T10:27:38.897Z,23.88
2017-12-26T10:30:06.356Z,24.22
2017-12-26T10:32:33.832Z,24.60
2017-12-26T10:35:01.302Z,22.80
2017-12-26T10:37:28.764Z,23.87
2017-12-26T10:39:56.240Z,24.72
2017-12-26T10:42:25.838Z,22.10
2017-12-26T10:44:53.425Z,15.91
2017-12-26T10:47:20.906Z,17.53
2017-12-26T10:49:48.422Z,18.23
2017-12-26T10:52:19.168Z,20.88
2017-12-26T10:54:46.833Z,21.13
2017-12-26T10:57:14.292Z,20.19
2017-12-26T10:59:41.758Z,19.00
2017-12-26T11:02:09.234Z,18.83
2017-12-26T11:04:36.715Z,18.82
2017-12-26T11:07:04.193Z,19.04
2017-12-26T11:09:31.702Z,20.38
2017-12-26T11:11:59.173Z,21.64
2017-12-26T11:14:26.638Z,22.56
2017-12-26T11:16:54.130Z,24.04
2017-12-26T11:19:21.594Z,22.43
2017-12-26T11:21:49.069Z,22.65
2017-12-26T11:24:16.581Z,20.13
2017-12-26T11:26:44.057Z,16.87
2017-12-26T11:29:11.520Z,18.90
2017-12-26T11:31:39.006Z,20.13
2017-12-26T11:34:06.473Z,16.98
2017-12-26T11:36:33.954Z,19.60
2017-12-26T11:39:01.417Z,19.10
2017-12-26T11:41:28.901Z,19.70
2017-12-26T11:43:56.361Z,23.60
2017-12-26T11:46:23.836Z,25.91
2017-12-26T11:48:51.319Z,22.08
2017-12-26T11:51:18.810Z,22.47
2017-12-26T11:53:46.284Z,23.42
2017-12-26T11:56:13.774Z,23.29
2017-12-26T11:58:41.237Z,20.11
2017-12-26T12:01:08.729Z,20.38
2017-12-26T12:03:36.197Z,21.07
2017-12-26T12:06:03.678Z,17.50
2017-12-26T12:08:31.143Z,17.22
2017-12-26T12:10:58.621Z,17.88
2017-12-26T12:13:26.094Z,17.56
2017-12-26T12:15:53.576Z,19.66
2017-12-26T12:18:21.040Z,22.23
2017-12-26T12:20:48.517Z,22.13
2017-12-26T12:23:15.976Z,18.37
2017-12-26T12:25:43.460Z,19.62
2017-12-26T12:28:10.921Z,18.10
2017-12-26T12:30:38.409Z,17.93
2017-12-26T12:33:05.909Z,18.68
2017-12-26T12:35:33.369Z,20.77
2017-12-26T12:38:00.849Z,21.02
2017-12-26T12:40:28.316Z,20.28
2017-12-26T12:42:55.805Z,21.19
2017-12-26T12:45:23.275Z,18.68
2017-12-26T12:47:50.773Z,17.96
2017-12-26T12:50:18.286Z,15.89
2017-12-26T12:52:45.797Z,15.97
2017-12-26T12:55:13.292Z,12.68
2017-12-26T12:57:40.785Z,10.65
2017-12-26T13:00:08.302Z,9.68
2017-12-26T13:02:35.779Z,9.41
2017-12-26T13:05:03.260Z,9.18
2017-12-26T13:07:30.717Z,8.98
2017-12-26T13:09:58.206Z,8.97
2017-12-26T13:12:25.685Z,8.85
2017-12-26T13:14:53.145Z,8.76
2017-12-26T13:17:20.609Z,8.67
2017-12-26T13:19:48.134Z,8.73
2017-12-26T13:22:15.602Z,8.67
2017-12-26T13:24:43.092Z,8.58
2017-12-26T13:27:10.581Z,8.54
2017-12-26T13:29:38.045Z,8.44
2017-12-26T13:32:05.517Z,8.42
2017-12-26T13:34:32.980Z,8.43
2017-12-26T13:37:00.466Z,8.24
2017-12-26T13:39:27.936Z,8.09
2017-12-26T13:41:55.392Z,8.05
2017-12-26T13:44:22.866Z,8.00
2017-12-26T13:46:50.344Z,7.98
2017-12-26T13:49:17.805Z,7.95
2017-12-26T13:51:45.289Z,7.88
2017-12-26T13:54:12.761Z,7.87
2017-12-26T13:56:40.217Z,7.82
2017-12-26T13:59:07.676Z,7.84
2017-12-26T14:01:35.640Z,7.85
2017-12-26T14:04:03.101Z,7.80
2017-12-26T14:06:30.565Z,7.79
2017-12-26T14:08:58.044Z,7.74
2017-12-26T14:11:25.505Z,7.78
2017-12-26T14:13:52.960Z,7.75
2017-12-26T14:16:20.461Z,7.76
2017-12-26T14:18:47.921Z,7.66
2017-12-26T14:21:15.381Z,7.50
2017-12-26T14:23:42.864Z,7.38
2017-12-26T14:26:10.325Z,7.33
2017-12-26T14:28:37.791Z,7.19
2017-12-26T14:31:05.265Z,7.06
2017-12-26T14:33:32.729Z,6.89
2017-12-26T14:36:00.185Z,6.78
2017-12-26T14:38:27.653Z,6.67
2017-12-26T14:40:55.125Z,6.62
2017-12-26T14:43:22.581Z,6.45
2017-12-26T14:45:50.070Z,6.29
2017-12-26T14:48:17.520Z,6.25
2017-12-26T14:50:44.972Z,6.23
2017-12-26T14:53:12.455Z,6.14
2017-12-26T14:55:39.904Z,6.16
2017-12-26T14:58:07.361Z,6.10
2017-12-26T15:00:34.853Z,6.04
2017-12-26T15:03:02.309Z,6.07
2017-12-26T15:05:29.854Z,5.97
2017-12-26T15:07:57.337Z,5.93
2017-12-26T15:10:24.799Z,5.83
2017-12-26T15:12:52.278Z,5.78
2017-12-26T15:15:19.801Z,5.79
2017-12-26T15:17:47.257Z,5.71
2017-12-26T15:20:14.709Z,5.68
2017-12-26T15:22:42.191Z,5.64
2017-12-26T15:25:09.652Z,5.63
2017-12-26T15:27:37.132Z,5.60
2017-12-26T15:30:04.615Z,5.55
2017-12-26T15:32:32.068Z,5.48
2017-12-26T15:34:59.545Z,5.41
2017-12-26T15:37:27.000Z,5.34
2017-12-26T15:39:54.468Z,5.37
2017-12-26T15:42:21.924Z,5.28
2017-12-26T15:44:49.380Z,5.21
2017-12-26T15:47:16.861Z,5.18
2017-12-26T15:49:44.321Z,5.11
2017-12-26T15:52:11.788Z,5.03
2017-12-26T15:54:39.245Z,4.99
2017-12-26T15:57:06.744Z,5.01
2017-12-26T15:59:34.197Z,4.82
2017-12-26T16:02:01.648Z,4.74
2017-12-26T16:04:29.132Z,4.76
2017-12-26T16:06:56.693Z,4.60
2017-12-26T16:09:24.160Z,4.66
2017-12-26T16:11:51.621Z,4.74
2017-12-26T16:14:19.092Z,4.55
2017-12-26T16:16:46.624Z,4.64
2017-12-26T16:19:14.085Z,4.51
2017-12-26T16:21:41.556Z,4.36
2017-12-26T16:24:09.008Z,4.30
2017-12-26T16:26:36.476Z,4.25
2017-12-26T16:29:03.936Z,4.22
2017-12-26T16:31:31.473Z,4.15
2017-12-26T16:33:58.926Z,4.17
2017-12-26T16:36:26.397Z,4.08
2017-12-26T16:38:53.877Z,4.15
2017-12-26T16:41:21.337Z,4.14
2017-12-26T16:43:48.801Z,4.09
2017-12-26T16:46:16.277Z,4.09
2017-12-26T16:48:43.732Z,4.13
2017-12-26T16:51:11.185Z,4.12
2017-12-26T16:53:38.660Z,4.03
2017-12-26T16:56:06.142Z,3.94
2017-12-26T16:58:33.645Z,3.95
2017-12-26T17:01:01.141Z,3.88
2017-12-26T17:03:28.652Z,3.92
2017-12-26T17:05:56.121Z,3.82
2017-12-26T17:08:23.601Z,3.82
2017-12-26T17:10:51.070Z,3.77
2017-12-26T17:13:18.564Z,3.63
2017-12-26T17:15:46.057Z,3.52
2017-12-26T17:18:13.525Z,3.47
2017-12-26T17:20:40.990Z,3.42
2017-12-26T17:23:08.470Z,3.43
2017-12-26T17:25:35.941Z,3.45
2017-12-26T17:28:03.413Z,3.50
2017-12-26T17:30:30.888Z,3.65
2017-12-26T17:32:58.336Z,3.60
2017-12-26T17:35:25.869Z,3.47
2017-12-26T17:37:53.348Z,3.28
2017-12-26T17:40:20.886Z,3.08
2017-12-26T17:42:48.353Z,2.90
2017-12-26T17:45:15.833Z,2.82
2017-12-26T17:47:43.305Z,2.70
2017-12-26T17:50:10.791Z,2.61
2017-12-26T17:52:38.252Z,2.45
2017-12-26T17:55:05.744Z,2.35
2017-12-26T17:57:33.209Z,2.35
2017-12-26T18:00:00.673Z,2.29
2017-12-26T18:02:28.154Z,2.24
2017-12-26T18:04:55.633Z,2.10
2017-12-26T18:07:23.112Z,1.86
2017-12-26T18:09:50.581Z,1.70
2017-12-26T18:12:18.085Z,1.66
2017-12-26T18:14:45.551Z,1.70
2017-12-26T18:17:13.011Z,1.61
2017-12-26T18:19:40.607Z,1.65
2017-12-26T18:22:08.109Z,1.70
2017-12-26T18:24:35.777Z,1.55
2017-12-26T18:27:03.386Z,1.53
2017-12-26T18:29:30.881Z,1.36
2017-12-26T18:31:58.344Z,1.10
2017-12-26T18:34:25.808Z,0.93
2017-12-26T18:36:53.406Z,0.85
2017-12-26T18:39:20.875Z,0.69
2017-12-26T18:41:48.450Z,0.35
2017-12-26T18:44:15.916Z,0.50
2017-12-26T18:46:43.404Z,0.47
2017-12-26T18:49:10.868Z,0.29
2017-12-26T18:51:38.328Z,0.07
2017-12-26T18:54:05.816Z,-0.17
2017-12-26T18:56:33.280Z,-0.30
2017-12-26T18:59:00.763Z,-0.01
2017-12-26T19:01:28.223Z,0.09
2017-12-26T19:03:55.809Z,0.14
2017-12-26T19:06:23.327Z,0.19
2017-12-26T19:08:50.787Z,0.26
2017-12-26T19:11:18.258Z,0.26
2017-12-26T19:13:45.751Z,0.12
2017-12-26T19:16:13.218Z,0.10
2017-12-26T19:18:40.703Z,0.04
2017-12-26T19:21:08.239Z,0.10
2017-12-26T19:23:35.705Z,0.08
2017-12-26T19:26:03.176Z,-0.02
2017-12-26T19:28:30.687Z,-0.13
2017-12-26T19:30:58.152Z,-0.30
2017-12-26T19:33:25.623Z,-0.41
2017-12-26T19:35:53.108Z,-0.39
2017-12-26T19:38:20.691Z,-0.30
2017-12-26T19:40:48.176Z,-0.19
2017-12-26T19:43:15.645Z,-0.13
2017-12-26T19:45:43.136Z,-0.08
2017-12-26T19:48:10.600Z,-0.11
2017-12-26T19:50:38.080Z,-0.10
2017-12-26T19:53:05.997Z,-0.16
2017-12-26T19:55:33.465Z,-0.21
2017-12-26T19:58:01.033Z,-0.20
2017-12-26T20:00:28.500Z,-0.23
2017-12-26T20:02:56.032Z,-0.28
2017-12-26T20:05:23.548Z,-0.37
2017-12-26T20:07:51.024Z,-0.51
2017-12-26T20:10:18.540Z,-0.49
2017-12-26T20:12:46.016Z,-0.54
2017-12-26T20:15:13.520Z,-0.50
2017-12-26T20:17:41.017Z,-0.60
2017-12-26T20:20:08.584Z,-0.66
2017-12-26T20:22:36.057Z,-0.62
2017-12-26T20:25:03.528Z,-0.66
2017-12-26T20:27:31.080Z,-0.74
2017-12-26T20:29:58.565Z,-0.80
2017-12-26T20:32:26.053Z,-0.87
2017-12-26T20:34:53.520Z,-1.00
2017-12-26T20:37:21.000Z,-1.09
2017-12-26T20:39:48.482Z,-1.00
2017-12-26T20:42:15.963Z,-1.08
2017-12-26T20:44:43.716Z,-1.03
2017-12-26T20:47:11.188Z,-1.06
2017-12-26T20:49:38.692Z,-1.22
2017-12-26T20:52:06.156Z,-1.40
2017-12-26T20:54:33.691Z,-1.55
2017-12-26T20:57:01.184Z,-1.60
2017-12-26T20:59:28.655Z,-1.55
2017-12-26T21:01:56.124Z,-1.44
2017-12-26T21:04:23.616Z,-1.37
2017-12-26T21:06:51.084Z,-1.32
2017-12-26T21:09:18.552Z,-1.28
2017-12-26T21:11:46.047Z,-1.23
2017-12-26T21:14:13.564Z,-1.21
2017-12-26T21:16:41.031Z,-1.29
2017-12-26T21:19:08.671Z,-1.26
2017-12-26T21:21:36.799Z,-1.26
2017-12-26T21:24:04.297Z,-1.29
2017-12-26T21:26:31.787Z,-1.25
2017-12-26T21:28:59.279Z,-1.21
2017-12-26T21:31:26.752Z,-1.26
2017-12-26T21:33:54.240Z,-1.49
2017-12-26T21:36:21.716Z,-1.69
2017-12-26T21:38:49.188Z,-1.75
2017-12-26T21:41:16.673Z,-1.92
2017-12-26T21:43:44.140Z,-2.07
2017-12-26T21:46:11.612Z,-2.17
2017-12-26T21:48:39.100Z,-2.20
2017-12-26T21:51:06.567Z,-2.20
2017-12-26T21:53:34.028Z,-2.25
2017-12-26T21:56:01.512Z,-2.24
2017-12-26T21:58:28.977Z,-2.15
2017-12-26T22:00:56.448Z,-2.09
2017-12-26T22:03:23.928Z,-2.11
2017-12-26T22:05:51.392Z,-2.08
2017-12-26T22:08:18.881Z,-2.18
2017-12-26T22:10:46.348Z,-2.34
2017-12-26T22:13:13.839Z,-2.41
2017-12-26T22:15:41.332Z,-2.51
2017-12-26T22:18:08.866Z,-2.51
2017-12-26T22:20:36.367Z,-2.51
2017-12-26T22:23:03.848Z,-2.41
2017-12-26T22:25:31.348Z,-2.19
2017-12-26T22:27:58.815Z,-2.29
2017-12-26T22:30:26.308Z,-2.38
2017-12-26T22:32:53.886Z,-2.40
2017-12-26T22:35:21.351Z,-2.37
2017-12-26T22:37:48.835Z,-2.40
2017-12-26T22:40:16.301Z,-2.43
2017-12-26T22:42:43.784Z,-2.46
2017-12-26T22:45:11.321Z,-2.61
2017-12-26T22:47:38.805Z,-2.64
2017-12-26T22:50:06.272Z,-2.49
2017-12-26T22:52:33.753Z,-2.44
2017-12-26T22:55:01.244Z,-2.53
2017-12-26T22:57:28.712Z,-2.61
2017-12-26T22:59:56.179Z,-2.67
2017-12-26T23:02:23.680Z,-2.68
2017-12-26T23:04:51.173Z,-2.70
2017-12-26T23:07:18.642Z,-2.66
2017-12-26T23:09:46.133Z,-2.54
2017-12-26T23:12:13.622Z,-2.61
2017-12-26T23:14:46.591Z,-2.62
2017-12-26T23:17:19.785Z,-2.53
2017-12-26T23:19:52.916Z,-2.28
2017-12-26T23:22:20.380Z,-2.25
2017-12-26T23:24:53.431Z,-2.17
2017-12-26T23:27:26.500Z,-2.18
2017-12-26T23:29:59.584Z,-2.34
2017-12-26T23:32:32.716Z,-2.44
2017-12-26T23:35:05.917Z,-2.62
2017-12-26T23:37:38.912Z,-2.72
2017-12-26T23:40:12.016Z,-2.64
2017-12-26T23:42:45.119Z,-2.56
2017-12-26T23:45:18.088Z,-2.49
2017-12-26T23:47:51.156Z,-2.51
2017-12-26T23:50:24.366Z,-2.43
2017-12-26T23:52:57.407Z,-2.44
2017-12-26T23:55:30.616Z,-2.33
2017-12-26T23:58:03.608Z,-2.18
